<?xml version="1.0" encoding="UTF-8" standalone="no" ?>
<gpx xmlns="http://www.topografix.com/GPX/1/1" xmlns:xsi="http://www.w3.org/2001/XMLSchema-instance" xsi:schemaLocation="http://www.topografix.com/GPX/1/1 http://www.topografix.com/GPX/1/1/gpx.xsd" version="1.1" creator="VisuGPX - https://www.visugpx.com">
  <metadata>
    <name>lundi 2016 10 17</name>
    <desc><![CDATA[rando du lundi en groupe d'amis]]></desc>
  </metadata>
  <trk>
    <name><![CDATA[Rando Roller du lundi 17 octobre 2016]]></name>
    <trkseg>
      <trkpt lat="48.85746" lon="2.34728">
        <ele>40.400001525879</ele>
        <time>2016-10-17T18:22:09.000Z</time>
      </trkpt>
      <trkpt lat="48.85739" lon="2.34725">
        <ele>40.400001525879</ele>
        <time>2016-10-17T18:22:25.000Z</time>
      </trkpt>
      <trkpt lat="48.85734" lon="2.34699">
        <ele>40</ele>
        <time>2016-10-17T18:23:41.000Z</time>
      </trkpt>
      <trkpt lat="48.85724" lon="2.3471">
        <ele>40.599998474121</ele>
        <time>2016-10-17T18:24:07.000Z</time>
      </trkpt>
      <trkpt lat="48.85706" lon="2.34772">
        <ele>41</ele>
        <time>2016-10-17T18:24:24.000Z</time>
      </trkpt>
      <trkpt lat="48.85695" lon="2.34811">
        <ele>45.599998474121</ele>
        <time>2016-10-17T18:24:32.000Z</time>
      </trkpt>
      <trkpt lat="48.85677" lon="2.34878">
        <ele>45</ele>
        <time>2016-10-17T18:24:44.000Z</time>
      </trkpt>
      <trkpt lat="48.85668" lon="2.34907">
        <ele>44.799999237061</ele>
        <time>2016-10-17T18:24:48.000Z</time>
      </trkpt>
      <trkpt lat="48.85641" lon="2.34968">
        <ele>41</ele>
        <time>2016-10-17T18:24:56.000Z</time>
      </trkpt>
      <trkpt lat="48.85618" lon="2.35023">
        <ele>34.400001525879</ele>
        <time>2016-10-17T18:25:05.000Z</time>
      </trkpt>
      <trkpt lat="48.85599" lon="2.35084">
        <ele>30.39999961853</ele>
        <time>2016-10-17T18:25:15.000Z</time>
      </trkpt>
      <trkpt lat="48.85586" lon="2.35117">
        <ele>31.799999237061</ele>
        <time>2016-10-17T18:25:20.000Z</time>
      </trkpt>
      <trkpt lat="48.85561" lon="2.3518">
        <ele>32.599998474121</ele>
        <time>2016-10-17T18:25:30.000Z</time>
      </trkpt>
      <trkpt lat="48.85544" lon="2.3523">
        <ele>31.799999237061</ele>
        <time>2016-10-17T18:25:38.000Z</time>
      </trkpt>
      <trkpt lat="48.85537" lon="2.35267">
        <ele>31.39999961853</ele>
        <time>2016-10-17T18:25:44.000Z</time>
      </trkpt>
      <trkpt lat="48.85554" lon="2.35299">
        <ele>36.599998474121</ele>
        <time>2016-10-17T18:25:51.000Z</time>
      </trkpt>
      <trkpt lat="48.85596" lon="2.35329">
        <ele>43.799999237061</ele>
        <time>2016-10-17T18:26:02.000Z</time>
      </trkpt>
      <trkpt lat="48.85586" lon="2.35396">
        <ele>40.799999237061</ele>
        <time>2016-10-17T18:26:16.000Z</time>
      </trkpt>
      <trkpt lat="48.85586" lon="2.35403">
        <ele>41.400001525879</ele>
        <time>2016-10-17T18:26:20.000Z</time>
      </trkpt>
      <trkpt lat="48.85596" lon="2.3547">
        <ele>40</ele>
        <time>2016-10-17T18:26:45.000Z</time>
      </trkpt>
      <trkpt lat="48.85595" lon="2.35542">
        <ele>41.200000762939</ele>
        <time>2016-10-17T18:26:59.000Z</time>
      </trkpt>
      <trkpt lat="48.85593" lon="2.35612">
        <ele>43</ele>
        <time>2016-10-17T18:27:15.000Z</time>
      </trkpt>
      <trkpt lat="48.85586" lon="2.35634">
        <ele>43.200000762939</ele>
        <time>2016-10-17T18:27:20.000Z</time>
      </trkpt>
      <trkpt lat="48.85564" lon="2.35695">
        <ele>41.799999237061</ele>
        <time>2016-10-17T18:27:31.000Z</time>
      </trkpt>
      <trkpt lat="48.85555" lon="2.35768">
        <ele>41.599998474121</ele>
        <time>2016-10-17T18:27:45.000Z</time>
      </trkpt>
      <trkpt lat="48.85555" lon="2.35842">
        <ele>43</ele>
        <time>2016-10-17T18:27:56.000Z</time>
      </trkpt>
      <trkpt lat="48.85555" lon="2.35863">
        <ele>43</ele>
        <time>2016-10-17T18:27:59.000Z</time>
      </trkpt>
      <trkpt lat="48.85549" lon="2.35933">
        <ele>44.599998474121</ele>
        <time>2016-10-17T18:28:11.000Z</time>
      </trkpt>
      <trkpt lat="48.85557" lon="2.35945">
        <ele>44.799999237061</ele>
        <time>2016-10-17T18:28:18.000Z</time>
      </trkpt>
      <trkpt lat="48.85559" lon="2.35956">
        <ele>45</ele>
        <time>2016-10-17T18:28:41.000Z</time>
      </trkpt>
      <trkpt lat="48.85579" lon="2.35894">
        <ele>44.599998474121</ele>
        <time>2016-10-17T18:28:55.000Z</time>
      </trkpt>
      <trkpt lat="48.85597" lon="2.3583">
        <ele>45.400001525879</ele>
        <time>2016-10-17T18:29:10.000Z</time>
      </trkpt>
      <trkpt lat="48.85612" lon="2.35766">
        <ele>45.400001525879</ele>
        <time>2016-10-17T18:29:23.000Z</time>
      </trkpt>
      <trkpt lat="48.85629" lon="2.357">
        <ele>45.200000762939</ele>
        <time>2016-10-17T18:29:34.000Z</time>
      </trkpt>
      <trkpt lat="48.85646" lon="2.35633">
        <ele>44.599998474121</ele>
        <time>2016-10-17T18:29:44.000Z</time>
      </trkpt>
      <trkpt lat="48.85662" lon="2.35566">
        <ele>44.200000762939</ele>
        <time>2016-10-17T18:29:54.000Z</time>
      </trkpt>
      <trkpt lat="48.85682" lon="2.35505">
        <ele>46.200000762939</ele>
        <time>2016-10-17T18:30:05.000Z</time>
      </trkpt>
      <trkpt lat="48.85725" lon="2.35527">
        <ele>46.200000762939</ele>
        <time>2016-10-17T18:30:26.000Z</time>
      </trkpt>
      <trkpt lat="48.85767" lon="2.35553">
        <ele>45.400001525879</ele>
        <time>2016-10-17T18:30:39.000Z</time>
      </trkpt>
      <trkpt lat="48.8581" lon="2.35582">
        <ele>45.799999237061</ele>
        <time>2016-10-17T18:30:52.000Z</time>
      </trkpt>
      <trkpt lat="48.85845" lon="2.3555">
        <ele>46.400001525879</ele>
        <time>2016-10-17T18:31:07.000Z</time>
      </trkpt>
      <trkpt lat="48.8585" lon="2.35539">
        <ele>46</ele>
        <time>2016-10-17T18:31:10.000Z</time>
      </trkpt>
      <trkpt lat="48.85892" lon="2.35565">
        <ele>46.599998474121</ele>
        <time>2016-10-17T18:31:22.000Z</time>
      </trkpt>
      <trkpt lat="48.85899" lon="2.35572">
        <ele>46.799999237061</ele>
        <time>2016-10-17T18:31:24.000Z</time>
      </trkpt>
      <trkpt lat="48.85907" lon="2.35579">
        <ele>47</ele>
        <time>2016-10-17T18:31:26.000Z</time>
      </trkpt>
      <trkpt lat="48.85948" lon="2.35616">
        <ele>46.400001525879</ele>
        <time>2016-10-17T18:31:35.000Z</time>
      </trkpt>
      <trkpt lat="48.85973" lon="2.35634">
        <ele>45.599998474121</ele>
        <time>2016-10-17T18:31:40.000Z</time>
      </trkpt>
      <trkpt lat="48.85983" lon="2.35639">
        <ele>45.200000762939</ele>
        <time>2016-10-17T18:31:42.000Z</time>
      </trkpt>
      <trkpt lat="48.86018" lon="2.35683">
        <ele>43.799999237061</ele>
        <time>2016-10-17T18:31:57.000Z</time>
      </trkpt>
      <trkpt lat="48.86058" lon="2.35723">
        <ele>43.799999237061</ele>
        <time>2016-10-17T18:32:09.000Z</time>
      </trkpt>
      <trkpt lat="48.86094" lon="2.35771">
        <ele>43.200000762939</ele>
        <time>2016-10-17T18:32:22.000Z</time>
      </trkpt>
      <trkpt lat="48.86113" lon="2.35797">
        <ele>43.200000762939</ele>
        <time>2016-10-17T18:32:30.000Z</time>
      </trkpt>
      <trkpt lat="48.86147" lon="2.35842">
        <ele>45</ele>
        <time>2016-10-17T18:32:44.000Z</time>
      </trkpt>
      <trkpt lat="48.86187" lon="2.35881">
        <ele>47.799999237061</ele>
        <time>2016-10-17T18:32:59.000Z</time>
      </trkpt>
      <trkpt lat="48.86206" lon="2.359">
        <ele>48.599998474121</ele>
        <time>2016-10-17T18:33:04.000Z</time>
      </trkpt>
      <trkpt lat="48.86243" lon="2.35944">
        <ele>47.799999237061</ele>
        <time>2016-10-17T18:33:13.000Z</time>
      </trkpt>
      <trkpt lat="48.86259" lon="2.35971">
        <ele>46.400001525879</ele>
        <time>2016-10-17T18:33:17.000Z</time>
      </trkpt>
      <trkpt lat="48.86303" lon="2.36004">
        <ele>45</ele>
        <time>2016-10-17T18:33:27.000Z</time>
      </trkpt>
      <trkpt lat="48.86328" lon="2.36047">
        <ele>44.400001525879</ele>
        <time>2016-10-17T18:33:35.000Z</time>
      </trkpt>
      <trkpt lat="48.8636" lon="2.36102">
        <ele>43.799999237061</ele>
        <time>2016-10-17T18:34:01.000Z</time>
      </trkpt>
      <trkpt lat="48.86373" lon="2.36115">
        <ele>43.400001525879</ele>
        <time>2016-10-17T18:34:09.000Z</time>
      </trkpt>
      <trkpt lat="48.86414" lon="2.3615">
        <ele>42.400001525879</ele>
        <time>2016-10-17T18:34:24.000Z</time>
      </trkpt>
      <trkpt lat="48.86454" lon="2.36191">
        <ele>42.200000762939</ele>
        <time>2016-10-17T18:34:36.000Z</time>
      </trkpt>
      <trkpt lat="48.86488" lon="2.36223">
        <ele>42.599998474121</ele>
        <time>2016-10-17T18:34:45.000Z</time>
      </trkpt>
      <trkpt lat="48.86501" lon="2.36241">
        <ele>42.799999237061</ele>
        <time>2016-10-17T18:34:49.000Z</time>
      </trkpt>
      <trkpt lat="48.86525" lon="2.36301">
        <ele>43.799999237061</ele>
        <time>2016-10-17T18:35:01.000Z</time>
      </trkpt>
      <trkpt lat="48.86548" lon="2.36363">
        <ele>46</ele>
        <time>2016-10-17T18:35:14.000Z</time>
      </trkpt>
      <trkpt lat="48.86563" lon="2.36396">
        <ele>47.799999237061</ele>
        <time>2016-10-17T18:35:22.000Z</time>
      </trkpt>
      <trkpt lat="48.86606" lon="2.36379">
        <ele>49.599998474121</ele>
        <time>2016-10-17T18:35:35.000Z</time>
      </trkpt>
      <trkpt lat="48.86647" lon="2.36351">
        <ele>47.599998474121</ele>
        <time>2016-10-17T18:35:48.000Z</time>
      </trkpt>
      <trkpt lat="48.86691" lon="2.3632">
        <ele>48.599998474121</ele>
        <time>2016-10-17T18:36:01.000Z</time>
      </trkpt>
      <trkpt lat="48.86713" lon="2.36316">
        <ele>46.400001525879</ele>
        <time>2016-10-17T18:36:10.000Z</time>
      </trkpt>
      <trkpt lat="48.8672" lon="2.36335">
        <ele>46</ele>
        <time>2016-10-17T18:36:17.000Z</time>
      </trkpt>
      <trkpt lat="48.8672" lon="2.36359">
        <ele>45.400001525879</ele>
        <time>2016-10-17T18:36:31.000Z</time>
      </trkpt>
      <trkpt lat="48.8675" lon="2.36412">
        <ele>40.200000762939</ele>
        <time>2016-10-17T18:36:52.000Z</time>
      </trkpt>
      <trkpt lat="48.86778" lon="2.36442">
        <ele>40</ele>
        <time>2016-10-17T18:37:02.000Z</time>
      </trkpt>
      <trkpt lat="48.86794" lon="2.36467">
        <ele>41.200000762939</ele>
        <time>2016-10-17T18:37:07.000Z</time>
      </trkpt>
      <trkpt lat="48.86818" lon="2.36516">
        <ele>43.799999237061</ele>
        <time>2016-10-17T18:37:16.000Z</time>
      </trkpt>
      <trkpt lat="48.86833" lon="2.36586">
        <ele>47.400001525879</ele>
        <time>2016-10-17T18:37:29.000Z</time>
      </trkpt>
      <trkpt lat="48.8685" lon="2.36654">
        <ele>47.799999237061</ele>
        <time>2016-10-17T18:37:42.000Z</time>
      </trkpt>
      <trkpt lat="48.8686" lon="2.36698">
        <ele>47.200000762939</ele>
        <time>2016-10-17T18:38:03.000Z</time>
      </trkpt>
      <trkpt lat="48.86864" lon="2.36705">
        <ele>47.200000762939</ele>
        <time>2016-10-17T18:38:06.000Z</time>
      </trkpt>
      <trkpt lat="48.86876" lon="2.36772">
        <ele>46.200000762939</ele>
        <time>2016-10-17T18:38:23.000Z</time>
      </trkpt>
      <trkpt lat="48.86856" lon="2.36832">
        <ele>45</ele>
        <time>2016-10-17T18:38:39.000Z</time>
      </trkpt>
      <trkpt lat="48.86849" lon="2.36856">
        <ele>45.599998474121</ele>
        <time>2016-10-17T18:38:43.000Z</time>
      </trkpt>
      <trkpt lat="48.86842" lon="2.36926">
        <ele>47.599998474121</ele>
        <time>2016-10-17T18:38:55.000Z</time>
      </trkpt>
      <trkpt lat="48.86834" lon="2.36994">
        <ele>49.599998474121</ele>
        <time>2016-10-17T18:39:07.000Z</time>
      </trkpt>
      <trkpt lat="48.8683" lon="2.37068">
        <ele>50.799999237061</ele>
        <time>2016-10-17T18:39:21.000Z</time>
      </trkpt>
      <trkpt lat="48.86813" lon="2.37133">
        <ele>50</ele>
        <time>2016-10-17T18:39:30.000Z</time>
      </trkpt>
      <trkpt lat="48.8681" lon="2.37206">
        <ele>50.799999237061</ele>
        <time>2016-10-17T18:39:47.000Z</time>
      </trkpt>
      <trkpt lat="48.86812" lon="2.37227">
        <ele>51.799999237061</ele>
        <time>2016-10-17T18:39:59.000Z</time>
      </trkpt>
      <trkpt lat="48.86814" lon="2.37296">
        <ele>52.599998474121</ele>
        <time>2016-10-17T18:40:17.000Z</time>
      </trkpt>
      <trkpt lat="48.86828" lon="2.37352">
        <ele>53.400001525879</ele>
        <time>2016-10-17T18:40:26.000Z</time>
      </trkpt>
      <trkpt lat="48.86835" lon="2.37372">
        <ele>53.200000762939</ele>
        <time>2016-10-17T18:40:29.000Z</time>
      </trkpt>
      <trkpt lat="48.86841" lon="2.374">
        <ele>53</ele>
        <time>2016-10-17T18:40:33.000Z</time>
      </trkpt>
      <trkpt lat="48.86849" lon="2.37438">
        <ele>52.799999237061</ele>
        <time>2016-10-17T18:40:38.000Z</time>
      </trkpt>
      <trkpt lat="48.86854" lon="2.37453">
        <ele>53</ele>
        <time>2016-10-17T18:40:40.000Z</time>
      </trkpt>
      <trkpt lat="48.86855" lon="2.3747">
        <ele>53</ele>
        <time>2016-10-17T18:40:42.000Z</time>
      </trkpt>
      <trkpt lat="48.86864" lon="2.37501">
        <ele>53.200000762939</ele>
        <time>2016-10-17T18:40:46.000Z</time>
      </trkpt>
      <trkpt lat="48.86872" lon="2.3753">
        <ele>52.599998474121</ele>
        <time>2016-10-17T18:40:50.000Z</time>
      </trkpt>
      <trkpt lat="48.86872" lon="2.37549">
        <ele>52.200000762939</ele>
        <time>2016-10-17T18:40:52.000Z</time>
      </trkpt>
      <trkpt lat="48.86881" lon="2.37618">
        <ele>51.799999237061</ele>
        <time>2016-10-17T18:40:59.000Z</time>
      </trkpt>
      <trkpt lat="48.86902" lon="2.37669">
        <ele>52.200000762939</ele>
        <time>2016-10-17T18:41:05.000Z</time>
      </trkpt>
      <trkpt lat="48.86912" lon="2.3769">
        <ele>53.200000762939</ele>
        <time>2016-10-17T18:41:08.000Z</time>
      </trkpt>
      <trkpt lat="48.86926" lon="2.37717">
        <ele>54.599998474121</ele>
        <time>2016-10-17T18:41:13.000Z</time>
      </trkpt>
      <trkpt lat="48.86933" lon="2.37737">
        <ele>55.400001525879</ele>
        <time>2016-10-17T18:41:16.000Z</time>
      </trkpt>
      <trkpt lat="48.86935" lon="2.37744">
        <ele>55.599998474121</ele>
        <time>2016-10-17T18:41:17.000Z</time>
      </trkpt>
      <trkpt lat="48.86938" lon="2.37749">
        <ele>56</ele>
        <time>2016-10-17T18:41:18.000Z</time>
      </trkpt>
      <trkpt lat="48.86959" lon="2.37816">
        <ele>56.799999237061</ele>
        <time>2016-10-17T18:41:28.000Z</time>
      </trkpt>
      <trkpt lat="48.86983" lon="2.37873">
        <ele>57</ele>
        <time>2016-10-17T18:41:45.000Z</time>
      </trkpt>
      <trkpt lat="48.86993" lon="2.37908">
        <ele>57.200000762939</ele>
        <time>2016-10-17T18:42:59.000Z</time>
      </trkpt>
      <trkpt lat="48.87002" lon="2.37924">
        <ele>57.599998474121</ele>
        <time>2016-10-17T18:43:06.000Z</time>
      </trkpt>
      <trkpt lat="48.87042" lon="2.37885">
        <ele>57.400001525879</ele>
        <time>2016-10-17T18:43:18.000Z</time>
      </trkpt>
      <trkpt lat="48.87054" lon="2.37869">
        <ele>57.799999237061</ele>
        <time>2016-10-17T18:43:22.000Z</time>
      </trkpt>
      <trkpt lat="48.87089" lon="2.37818">
        <ele>57.799999237061</ele>
        <time>2016-10-17T18:43:34.000Z</time>
      </trkpt>
      <trkpt lat="48.87124" lon="2.37775">
        <ele>58.200000762939</ele>
        <time>2016-10-17T18:43:46.000Z</time>
      </trkpt>
      <trkpt lat="48.87165" lon="2.37741">
        <ele>59.200000762939</ele>
        <time>2016-10-17T18:44:00.000Z</time>
      </trkpt>
      <trkpt lat="48.87203" lon="2.37702">
        <ele>62.200000762939</ele>
        <time>2016-10-17T18:44:16.000Z</time>
      </trkpt>
      <trkpt lat="48.87219" lon="2.3769">
        <ele>63.799999237061</ele>
        <time>2016-10-17T18:44:42.000Z</time>
      </trkpt>
      <trkpt lat="48.87255" lon="2.37644">
        <ele>66.400001525879</ele>
        <time>2016-10-17T18:45:00.000Z</time>
      </trkpt>
      <trkpt lat="48.87264" lon="2.37632">
        <ele>66.400001525879</ele>
        <time>2016-10-17T18:45:03.000Z</time>
      </trkpt>
      <trkpt lat="48.8727" lon="2.37624">
        <ele>66.400001525879</ele>
        <time>2016-10-17T18:45:05.000Z</time>
      </trkpt>
      <trkpt lat="48.8728" lon="2.37609">
        <ele>65.800003051758</ele>
        <time>2016-10-17T18:45:08.000Z</time>
      </trkpt>
      <trkpt lat="48.87319" lon="2.37566">
        <ele>65.400001525879</ele>
        <time>2016-10-17T18:45:18.000Z</time>
      </trkpt>
      <trkpt lat="48.8736" lon="2.37535">
        <ele>65.199996948242</ele>
        <time>2016-10-17T18:45:31.000Z</time>
      </trkpt>
      <trkpt lat="48.87396" lon="2.37489">
        <ele>64.599998474121</ele>
        <time>2016-10-17T18:45:47.000Z</time>
      </trkpt>
      <trkpt lat="48.874" lon="2.37491">
        <ele>64.800003051758</ele>
        <time>2016-10-17T18:45:55.000Z</time>
      </trkpt>
      <trkpt lat="48.87407" lon="2.3756">
        <ele>66.800003051758</ele>
        <time>2016-10-17T18:46:18.000Z</time>
      </trkpt>
      <trkpt lat="48.87408" lon="2.37632">
        <ele>69.800003051758</ele>
        <time>2016-10-17T18:46:31.000Z</time>
      </trkpt>
      <trkpt lat="48.87408" lon="2.37688">
        <ele>70.800003051758</ele>
        <time>2016-10-17T18:46:40.000Z</time>
      </trkpt>
      <trkpt lat="48.87416" lon="2.37703">
        <ele>70.599998474121</ele>
        <time>2016-10-17T18:46:42.000Z</time>
      </trkpt>
      <trkpt lat="48.87427" lon="2.3777">
        <ele>69.199996948242</ele>
        <time>2016-10-17T18:46:51.000Z</time>
      </trkpt>
      <trkpt lat="48.87427" lon="2.37777">
        <ele>69.199996948242</ele>
        <time>2016-10-17T18:46:52.000Z</time>
      </trkpt>
      <trkpt lat="48.87427" lon="2.37792">
        <ele>69</ele>
        <time>2016-10-17T18:46:54.000Z</time>
      </trkpt>
      <trkpt lat="48.87431" lon="2.37806">
        <ele>69</ele>
        <time>2016-10-17T18:46:56.000Z</time>
      </trkpt>
      <trkpt lat="48.87442" lon="2.3784">
        <ele>69.199996948242</ele>
        <time>2016-10-17T18:47:01.000Z</time>
      </trkpt>
      <trkpt lat="48.87447" lon="2.37847">
        <ele>69.599998474121</ele>
        <time>2016-10-17T18:47:02.000Z</time>
      </trkpt>
      <trkpt lat="48.87452" lon="2.3786">
        <ele>70</ele>
        <time>2016-10-17T18:47:04.000Z</time>
      </trkpt>
      <trkpt lat="48.87457" lon="2.37889">
        <ele>70.599998474121</ele>
        <time>2016-10-17T18:47:08.000Z</time>
      </trkpt>
      <trkpt lat="48.87467" lon="2.3793">
        <ele>71.800003051758</ele>
        <time>2016-10-17T18:47:15.000Z</time>
      </trkpt>
      <trkpt lat="48.87478" lon="2.37998">
        <ele>75.400001525879</ele>
        <time>2016-10-17T18:47:27.000Z</time>
      </trkpt>
      <trkpt lat="48.87473" lon="2.38065">
        <ele>79.199996948242</ele>
        <time>2016-10-17T18:47:39.000Z</time>
      </trkpt>
      <trkpt lat="48.87476" lon="2.38124">
        <ele>82.199996948242</ele>
        <time>2016-10-17T18:48:19.000Z</time>
      </trkpt>
      <trkpt lat="48.87479" lon="2.38123">
        <ele>82.400001525879</ele>
        <time>2016-10-17T18:48:54.000Z</time>
      </trkpt>
      <trkpt lat="48.8752" lon="2.38149">
        <ele>86</ele>
        <time>2016-10-17T18:49:19.000Z</time>
      </trkpt>
      <trkpt lat="48.87558" lon="2.38182">
        <ele>89</ele>
        <time>2016-10-17T18:50:07.000Z</time>
      </trkpt>
      <trkpt lat="48.87557" lon="2.38187">
        <ele>89.199996948242</ele>
        <time>2016-10-17T18:50:09.000Z</time>
      </trkpt>
      <trkpt lat="48.87539" lon="2.38227">
        <ele>91.599998474121</ele>
        <time>2016-10-17T18:50:22.000Z</time>
      </trkpt>
      <trkpt lat="48.8754" lon="2.38242">
        <ele>92.800003051758</ele>
        <time>2016-10-17T18:50:27.000Z</time>
      </trkpt>
      <trkpt lat="48.87548" lon="2.38257">
        <ele>93.800003051758</ele>
        <time>2016-10-17T18:50:32.000Z</time>
      </trkpt>
      <trkpt lat="48.87564" lon="2.3828">
        <ele>95.400001525879</ele>
        <time>2016-10-17T18:50:45.000Z</time>
      </trkpt>
      <trkpt lat="48.87577" lon="2.38307">
        <ele>97.199996948242</ele>
        <time>2016-10-17T18:50:58.000Z</time>
      </trkpt>
      <trkpt lat="48.87581" lon="2.38341">
        <ele>99.199996948242</ele>
        <time>2016-10-17T18:52:51.000Z</time>
      </trkpt>
      <trkpt lat="48.87584" lon="2.38349">
        <ele>99.599998474121</ele>
        <time>2016-10-17T18:53:24.000Z</time>
      </trkpt>
      <trkpt lat="48.87626" lon="2.38351">
        <ele>99.400001525879</ele>
        <time>2016-10-17T18:53:45.000Z</time>
      </trkpt>
      <trkpt lat="48.87669" lon="2.38386">
        <ele>100.40000152588</ele>
        <time>2016-10-17T18:54:05.000Z</time>
      </trkpt>
      <trkpt lat="48.87674" lon="2.384">
        <ele>100.59999847412</ele>
        <time>2016-10-17T18:54:12.000Z</time>
      </trkpt>
      <trkpt lat="48.87674" lon="2.38471">
        <ele>102.80000305176</ele>
        <time>2016-10-17T18:54:28.000Z</time>
      </trkpt>
      <trkpt lat="48.87674" lon="2.3854">
        <ele>104.19999694824</ele>
        <time>2016-10-17T18:54:42.000Z</time>
      </trkpt>
      <trkpt lat="48.87666" lon="2.38613">
        <ele>104.59999847412</ele>
        <time>2016-10-17T18:54:56.000Z</time>
      </trkpt>
      <trkpt lat="48.87653" lon="2.38683">
        <ele>104.40000152588</ele>
        <time>2016-10-17T18:55:07.000Z</time>
      </trkpt>
      <trkpt lat="48.87633" lon="2.38747">
        <ele>104.40000152588</ele>
        <time>2016-10-17T18:55:21.000Z</time>
      </trkpt>
      <trkpt lat="48.8762" lon="2.38815">
        <ele>104.40000152588</ele>
        <time>2016-10-17T18:55:37.000Z</time>
      </trkpt>
      <trkpt lat="48.87608" lon="2.38885">
        <ele>102.19999694824</ele>
        <time>2016-10-17T18:55:49.000Z</time>
      </trkpt>
      <trkpt lat="48.87611" lon="2.38898">
        <ele>101.80000305176</ele>
        <time>2016-10-17T18:55:52.000Z</time>
      </trkpt>
      <trkpt lat="48.87624" lon="2.38947">
        <ele>102.80000305176</ele>
        <time>2016-10-17T18:56:13.000Z</time>
      </trkpt>
      <trkpt lat="48.87669" lon="2.38947">
        <ele>104</ele>
        <time>2016-10-17T18:56:30.000Z</time>
      </trkpt>
      <trkpt lat="48.87676" lon="2.38955">
        <ele>104.40000152588</ele>
        <time>2016-10-17T18:56:34.000Z</time>
      </trkpt>
      <trkpt lat="48.87671" lon="2.39024">
        <ele>106.40000152588</ele>
        <time>2016-10-17T18:56:51.000Z</time>
      </trkpt>
      <trkpt lat="48.87669" lon="2.39098">
        <ele>108.19999694824</ele>
        <time>2016-10-17T18:57:06.000Z</time>
      </trkpt>
      <trkpt lat="48.87666" lon="2.39167">
        <ele>110.80000305176</ele>
        <time>2016-10-17T18:57:20.000Z</time>
      </trkpt>
      <trkpt lat="48.87668" lon="2.39235">
        <ele>110.59999847412</ele>
        <time>2016-10-17T18:57:36.000Z</time>
      </trkpt>
      <trkpt lat="48.87668" lon="2.39254">
        <ele>110.80000305176</ele>
        <time>2016-10-17T18:58:12.000Z</time>
      </trkpt>
      <trkpt lat="48.8764" lon="2.39307">
        <ele>111.59999847412</ele>
        <time>2016-10-17T18:58:28.000Z</time>
      </trkpt>
      <trkpt lat="48.87619" lon="2.39368">
        <ele>117.80000305176</ele>
        <time>2016-10-17T18:58:42.000Z</time>
      </trkpt>
      <trkpt lat="48.87615" lon="2.3944">
        <ele>121</ele>
        <time>2016-10-17T18:58:57.000Z</time>
      </trkpt>
      <trkpt lat="48.87629" lon="2.39505">
        <ele>120.19999694824</ele>
        <time>2016-10-17T18:59:12.000Z</time>
      </trkpt>
      <trkpt lat="48.87663" lon="2.39546">
        <ele>119</ele>
        <time>2016-10-17T18:59:25.000Z</time>
      </trkpt>
      <trkpt lat="48.87708" lon="2.3955">
        <ele>118.40000152588</ele>
        <time>2016-10-17T18:59:40.000Z</time>
      </trkpt>
      <trkpt lat="48.87756" lon="2.39553">
        <ele>115.80000305176</ele>
        <time>2016-10-17T18:59:54.000Z</time>
      </trkpt>
      <trkpt lat="48.87798" lon="2.39552">
        <ele>115.19999694824</ele>
        <time>2016-10-17T19:00:07.000Z</time>
      </trkpt>
      <trkpt lat="48.87842" lon="2.39568">
        <ele>114</ele>
        <time>2016-10-17T19:00:16.000Z</time>
      </trkpt>
      <trkpt lat="48.87847" lon="2.39571">
        <ele>113.80000305176</ele>
        <time>2016-10-17T19:00:17.000Z</time>
      </trkpt>
      <trkpt lat="48.87889" lon="2.39604">
        <ele>113.40000152588</ele>
        <time>2016-10-17T19:00:27.000Z</time>
      </trkpt>
      <trkpt lat="48.87911" lon="2.39617">
        <ele>113.59999847412</ele>
        <time>2016-10-17T19:00:32.000Z</time>
      </trkpt>
      <trkpt lat="48.87957" lon="2.39639">
        <ele>114</ele>
        <time>2016-10-17T19:00:43.000Z</time>
      </trkpt>
      <trkpt lat="48.87996" lon="2.39649">
        <ele>114</ele>
        <time>2016-10-17T19:00:52.000Z</time>
      </trkpt>
      <trkpt lat="48.88026" lon="2.39658">
        <ele>113.19999694824</ele>
        <time>2016-10-17T19:00:59.000Z</time>
      </trkpt>
      <trkpt lat="48.88042" lon="2.39635">
        <ele>110.40000152588</ele>
        <time>2016-10-17T19:02:05.000Z</time>
      </trkpt>
      <trkpt lat="48.88055" lon="2.3957">
        <ele>105.80000305176</ele>
        <time>2016-10-17T19:02:22.000Z</time>
      </trkpt>
      <trkpt lat="48.88076" lon="2.3951">
        <ele>102.59999847412</ele>
        <time>2016-10-17T19:02:35.000Z</time>
      </trkpt>
      <trkpt lat="48.88104" lon="2.39452">
        <ele>100.19999694824</ele>
        <time>2016-10-17T19:02:48.000Z</time>
      </trkpt>
      <trkpt lat="48.88118" lon="2.39384">
        <ele>98</ele>
        <time>2016-10-17T19:03:02.000Z</time>
      </trkpt>
      <trkpt lat="48.88104" lon="2.39331">
        <ele>99.199996948242</ele>
        <time>2016-10-17T19:03:39.000Z</time>
      </trkpt>
      <trkpt lat="48.88102" lon="2.39329">
        <ele>99.400001525879</ele>
        <time>2016-10-17T19:04:25.000Z</time>
      </trkpt>
      <trkpt lat="48.88064" lon="2.3929">
        <ele>101.19999694824</ele>
        <time>2016-10-17T19:04:45.000Z</time>
      </trkpt>
      <trkpt lat="48.88027" lon="2.39242">
        <ele>102.59999847412</ele>
        <time>2016-10-17T19:05:01.000Z</time>
      </trkpt>
      <trkpt lat="48.88017" lon="2.39195">
        <ele>102.19999694824</ele>
        <time>2016-10-17T19:05:46.000Z</time>
      </trkpt>
      <trkpt lat="48.88014" lon="2.39125">
        <ele>101</ele>
        <time>2016-10-17T19:06:01.000Z</time>
      </trkpt>
      <trkpt lat="48.88013" lon="2.39056">
        <ele>100</ele>
        <time>2016-10-17T19:06:11.000Z</time>
      </trkpt>
      <trkpt lat="48.87995" lon="2.39002">
        <ele>101.59999847412</ele>
        <time>2016-10-17T19:06:23.000Z</time>
      </trkpt>
      <trkpt lat="48.87966" lon="2.38955">
        <ele>104.40000152588</ele>
        <time>2016-10-17T19:06:48.000Z</time>
      </trkpt>
      <trkpt lat="48.8797" lon="2.38952">
        <ele>104.19999694824</ele>
        <time>2016-10-17T19:07:01.000Z</time>
      </trkpt>
      <trkpt lat="48.88005" lon="2.38909">
        <ele>100.40000152588</ele>
        <time>2016-10-17T19:07:15.000Z</time>
      </trkpt>
      <trkpt lat="48.88046" lon="2.38864">
        <ele>94.599998474121</ele>
        <time>2016-10-17T19:07:23.000Z</time>
      </trkpt>
      <trkpt lat="48.88085" lon="2.38824">
        <ele>89.400001525879</ele>
        <time>2016-10-17T19:07:29.000Z</time>
      </trkpt>
      <trkpt lat="48.88122" lon="2.38776">
        <ele>84.400001525879</ele>
        <time>2016-10-17T19:07:34.000Z</time>
      </trkpt>
      <trkpt lat="48.88158" lon="2.38727">
        <ele>84.599998474121</ele>
        <time>2016-10-17T19:07:39.000Z</time>
      </trkpt>
      <trkpt lat="48.88194" lon="2.38684">
        <ele>83.199996948242</ele>
        <time>2016-10-17T19:07:45.000Z</time>
      </trkpt>
      <trkpt lat="48.88199" lon="2.38678">
        <ele>82.400001525879</ele>
        <time>2016-10-17T19:07:46.000Z</time>
      </trkpt>
      <trkpt lat="48.88239" lon="2.38634">
        <ele>78.800003051758</ele>
        <time>2016-10-17T19:07:53.000Z</time>
      </trkpt>
      <trkpt lat="48.88276" lon="2.3859">
        <ele>79.800003051758</ele>
        <time>2016-10-17T19:08:00.000Z</time>
      </trkpt>
      <trkpt lat="48.88312" lon="2.38551">
        <ele>75.599998474121</ele>
        <time>2016-10-17T19:08:13.000Z</time>
      </trkpt>
      <trkpt lat="48.8831" lon="2.38542">
        <ele>75.400001525879</ele>
        <time>2016-10-17T19:09:23.000Z</time>
      </trkpt>
      <trkpt lat="48.88296" lon="2.38471">
        <ele>74</ele>
        <time>2016-10-17T19:09:39.000Z</time>
      </trkpt>
      <trkpt lat="48.88292" lon="2.38431">
        <ele>72.800003051758</ele>
        <time>2016-10-17T19:09:45.000Z</time>
      </trkpt>
      <trkpt lat="48.88277" lon="2.38362">
        <ele>71.599998474121</ele>
        <time>2016-10-17T19:09:54.000Z</time>
      </trkpt>
      <trkpt lat="48.8826" lon="2.38298">
        <ele>69.199996948242</ele>
        <time>2016-10-17T19:10:03.000Z</time>
      </trkpt>
      <trkpt lat="48.8824" lon="2.38233">
        <ele>67.800003051758</ele>
        <time>2016-10-17T19:10:15.000Z</time>
      </trkpt>
      <trkpt lat="48.88248" lon="2.38169">
        <ele>69.400001525879</ele>
        <time>2016-10-17T19:10:37.000Z</time>
      </trkpt>
      <trkpt lat="48.88252" lon="2.38097">
        <ele>71.199996948242</ele>
        <time>2016-10-17T19:10:51.000Z</time>
      </trkpt>
      <trkpt lat="48.88264" lon="2.38028">
        <ele>69.800003051758</ele>
        <time>2016-10-17T19:11:02.000Z</time>
      </trkpt>
      <trkpt lat="48.88264" lon="2.37958">
        <ele>66.599998474121</ele>
        <time>2016-10-17T19:11:10.000Z</time>
      </trkpt>
      <trkpt lat="48.88264" lon="2.3789">
        <ele>63.599998474121</ele>
        <time>2016-10-17T19:11:16.000Z</time>
      </trkpt>
      <trkpt lat="48.88265" lon="2.37814">
        <ele>61.400001525879</ele>
        <time>2016-10-17T19:11:22.000Z</time>
      </trkpt>
      <trkpt lat="48.88268" lon="2.37735">
        <ele>61.400001525879</ele>
        <time>2016-10-17T19:11:28.000Z</time>
      </trkpt>
      <trkpt lat="48.88273" lon="2.37656">
        <ele>62</ele>
        <time>2016-10-17T19:11:34.000Z</time>
      </trkpt>
      <trkpt lat="48.88279" lon="2.37582">
        <ele>61</ele>
        <time>2016-10-17T19:11:40.000Z</time>
      </trkpt>
      <trkpt lat="48.88282" lon="2.37512">
        <ele>61.799999237061</ele>
        <time>2016-10-17T19:11:46.000Z</time>
      </trkpt>
      <trkpt lat="48.88285" lon="2.37437">
        <ele>61.599998474121</ele>
        <time>2016-10-17T19:11:54.000Z</time>
      </trkpt>
      <trkpt lat="48.88296" lon="2.37365">
        <ele>60.599998474121</ele>
        <time>2016-10-17T19:12:06.000Z</time>
      </trkpt>
      <trkpt lat="48.883" lon="2.37293">
        <ele>62</ele>
        <time>2016-10-17T19:12:22.000Z</time>
      </trkpt>
      <trkpt lat="48.88302" lon="2.3726">
        <ele>62.200000762939</ele>
        <time>2016-10-17T19:12:27.000Z</time>
      </trkpt>
      <trkpt lat="48.88303" lon="2.37187">
        <ele>61.200000762939</ele>
        <time>2016-10-17T19:12:38.000Z</time>
      </trkpt>
      <trkpt lat="48.88297" lon="2.37121">
        <ele>59.799999237061</ele>
        <time>2016-10-17T19:14:15.000Z</time>
      </trkpt>
      <trkpt lat="48.88296" lon="2.37118">
        <ele>59.799999237061</ele>
        <time>2016-10-17T19:14:16.000Z</time>
      </trkpt>
      <trkpt lat="48.88298" lon="2.37082">
        <ele>58.200000762939</ele>
        <time>2016-10-17T19:15:14.000Z</time>
      </trkpt>
      <trkpt lat="48.88278" lon="2.37018">
        <ele>56.599998474121</ele>
        <time>2016-10-17T19:15:34.000Z</time>
      </trkpt>
      <trkpt lat="48.88254" lon="2.36955">
        <ele>56.200000762939</ele>
        <time>2016-10-17T19:15:48.000Z</time>
      </trkpt>
      <trkpt lat="48.88243" lon="2.3692">
        <ele>56.599998474121</ele>
        <time>2016-10-17T19:15:54.000Z</time>
      </trkpt>
      <trkpt lat="48.88228" lon="2.3685">
        <ele>57.200000762939</ele>
        <time>2016-10-17T19:16:04.000Z</time>
      </trkpt>
      <trkpt lat="48.8821" lon="2.36779">
        <ele>57.400001525879</ele>
        <time>2016-10-17T19:16:13.000Z</time>
      </trkpt>
      <trkpt lat="48.88201" lon="2.36746">
        <ele>56.599998474121</ele>
        <time>2016-10-17T19:16:17.000Z</time>
      </trkpt>
      <trkpt lat="48.88181" lon="2.36676">
        <ele>58.400001525879</ele>
        <time>2016-10-17T19:16:25.000Z</time>
      </trkpt>
      <trkpt lat="48.88176" lon="2.36661">
        <ele>58.799999237061</ele>
        <time>2016-10-17T19:16:27.000Z</time>
      </trkpt>
      <trkpt lat="48.88159" lon="2.36593">
        <ele>58.599998474121</ele>
        <time>2016-10-17T19:16:41.000Z</time>
      </trkpt>
      <trkpt lat="48.88141" lon="2.3653">
        <ele>58.599998474121</ele>
        <time>2016-10-17T19:16:53.000Z</time>
      </trkpt>
      <trkpt lat="48.88131" lon="2.36478">
        <ele>59</ele>
        <time>2016-10-17T19:17:02.000Z</time>
      </trkpt>
      <trkpt lat="48.88114" lon="2.3642">
        <ele>59</ele>
        <time>2016-10-17T19:17:11.000Z</time>
      </trkpt>
      <trkpt lat="48.8811" lon="2.36405">
        <ele>59.200000762939</ele>
        <time>2016-10-17T19:17:13.000Z</time>
      </trkpt>
      <trkpt lat="48.88092" lon="2.36336">
        <ele>59.400001525879</ele>
        <time>2016-10-17T19:17:21.000Z</time>
      </trkpt>
      <trkpt lat="48.8807" lon="2.36272">
        <ele>59.400001525879</ele>
        <time>2016-10-17T19:17:31.000Z</time>
      </trkpt>
      <trkpt lat="48.88056" lon="2.36202">
        <ele>56.400001525879</ele>
        <time>2016-10-17T19:17:49.000Z</time>
      </trkpt>
      <trkpt lat="48.88053" lon="2.36186">
        <ele>55.400001525879</ele>
        <time>2016-10-17T19:17:51.000Z</time>
      </trkpt>
      <trkpt lat="48.88044" lon="2.36156">
        <ele>53.599998474121</ele>
        <time>2016-10-17T19:17:54.000Z</time>
      </trkpt>
      <trkpt lat="48.88041" lon="2.36147">
        <ele>53.200000762939</ele>
        <time>2016-10-17T19:17:55.000Z</time>
      </trkpt>
      <trkpt lat="48.88025" lon="2.36082">
        <ele>50.200000762939</ele>
        <time>2016-10-17T19:18:02.000Z</time>
      </trkpt>
      <trkpt lat="48.88007" lon="2.36013">
        <ele>51.200000762939</ele>
        <time>2016-10-17T19:18:09.000Z</time>
      </trkpt>
      <trkpt lat="48.8799" lon="2.35946">
        <ele>54.599998474121</ele>
        <time>2016-10-17T19:18:16.000Z</time>
      </trkpt>
      <trkpt lat="48.87967" lon="2.3588">
        <ele>60</ele>
        <time>2016-10-17T19:18:25.000Z</time>
      </trkpt>
      <trkpt lat="48.87945" lon="2.35818">
        <ele>63.599998474121</ele>
        <time>2016-10-17T19:18:42.000Z</time>
      </trkpt>
      <trkpt lat="48.87941" lon="2.35745">
        <ele>63</ele>
        <time>2016-10-17T19:19:06.000Z</time>
      </trkpt>
      <trkpt lat="48.87947" lon="2.3574">
        <ele>62.599998474121</ele>
        <time>2016-10-17T19:19:42.000Z</time>
      </trkpt>
      <trkpt lat="48.87967" lon="2.35676">
        <ele>61.400001525879</ele>
        <time>2016-10-17T19:19:55.000Z</time>
      </trkpt>
      <trkpt lat="48.8797" lon="2.35662">
        <ele>60.799999237061</ele>
        <time>2016-10-17T19:19:57.000Z</time>
      </trkpt>
      <trkpt lat="48.87981" lon="2.3559">
        <ele>60</ele>
        <time>2016-10-17T19:20:06.000Z</time>
      </trkpt>
      <trkpt lat="48.87983" lon="2.35576">
        <ele>60</ele>
        <time>2016-10-17T19:20:07.000Z</time>
      </trkpt>
      <trkpt lat="48.87991" lon="2.35506">
        <ele>62.200000762939</ele>
        <time>2016-10-17T19:20:20.000Z</time>
      </trkpt>
      <trkpt lat="48.87996" lon="2.35437">
        <ele>62.400001525879</ele>
        <time>2016-10-17T19:20:41.000Z</time>
      </trkpt>
      <trkpt lat="48.88021" lon="2.35378">
        <ele>62.799999237061</ele>
        <time>2016-10-17T19:21:01.000Z</time>
      </trkpt>
      <trkpt lat="48.88035" lon="2.35343">
        <ele>63.400001525879</ele>
        <time>2016-10-17T19:22:02.000Z</time>
      </trkpt>
      <trkpt lat="48.88047" lon="2.35275">
        <ele>63.599998474121</ele>
        <time>2016-10-17T19:22:19.000Z</time>
      </trkpt>
      <trkpt lat="48.88043" lon="2.35208">
        <ele>63.200000762939</ele>
        <time>2016-10-17T19:22:34.000Z</time>
      </trkpt>
      <trkpt lat="48.88023" lon="2.3514">
        <ele>63</ele>
        <time>2016-10-17T19:22:47.000Z</time>
      </trkpt>
      <trkpt lat="48.88005" lon="2.35074">
        <ele>62.400001525879</ele>
        <time>2016-10-17T19:22:56.000Z</time>
      </trkpt>
      <trkpt lat="48.87981" lon="2.35009">
        <ele>61.200000762939</ele>
        <time>2016-10-17T19:23:05.000Z</time>
      </trkpt>
      <trkpt lat="48.87969" lon="2.34979">
        <ele>60.200000762939</ele>
        <time>2016-10-17T19:23:10.000Z</time>
      </trkpt>
      <trkpt lat="48.87957" lon="2.34933">
        <ele>58.799999237061</ele>
        <time>2016-10-17T19:23:16.000Z</time>
      </trkpt>
      <trkpt lat="48.87947" lon="2.34891">
        <ele>59.200000762939</ele>
        <time>2016-10-17T19:23:21.000Z</time>
      </trkpt>
      <trkpt lat="48.87929" lon="2.34824">
        <ele>60.799999237061</ele>
        <time>2016-10-17T19:23:29.000Z</time>
      </trkpt>
      <trkpt lat="48.87906" lon="2.34754">
        <ele>61.599998474121</ele>
        <time>2016-10-17T19:23:36.000Z</time>
      </trkpt>
      <trkpt lat="48.87889" lon="2.3468">
        <ele>64</ele>
        <time>2016-10-17T19:23:42.000Z</time>
      </trkpt>
      <trkpt lat="48.87872" lon="2.34614">
        <ele>61.200000762939</ele>
        <time>2016-10-17T19:23:47.000Z</time>
      </trkpt>
      <trkpt lat="48.87853" lon="2.34546">
        <ele>58</ele>
        <time>2016-10-17T19:23:55.000Z</time>
      </trkpt>
      <trkpt lat="48.87823" lon="2.34481">
        <ele>55.400001525879</ele>
        <time>2016-10-17T19:24:04.000Z</time>
      </trkpt>
      <trkpt lat="48.87788" lon="2.34423">
        <ele>54.799999237061</ele>
        <time>2016-10-17T19:24:10.000Z</time>
      </trkpt>
      <trkpt lat="48.87758" lon="2.34367">
        <ele>53.599998474121</ele>
        <time>2016-10-17T19:24:15.000Z</time>
      </trkpt>
      <trkpt lat="48.87732" lon="2.34309">
        <ele>53</ele>
        <time>2016-10-17T19:24:20.000Z</time>
      </trkpt>
      <trkpt lat="48.87708" lon="2.34244">
        <ele>52.599998474121</ele>
        <time>2016-10-17T19:24:26.000Z</time>
      </trkpt>
      <trkpt lat="48.87681" lon="2.3418">
        <ele>51.599998474121</ele>
        <time>2016-10-17T19:24:36.000Z</time>
      </trkpt>
      <trkpt lat="48.87651" lon="2.34122">
        <ele>50.599998474121</ele>
        <time>2016-10-17T19:24:45.000Z</time>
      </trkpt>
      <trkpt lat="48.8762" lon="2.34064">
        <ele>48.799999237061</ele>
        <time>2016-10-17T19:24:54.000Z</time>
      </trkpt>
      <trkpt lat="48.87594" lon="2.34002">
        <ele>47.200000762939</ele>
        <time>2016-10-17T19:25:04.000Z</time>
      </trkpt>
      <trkpt lat="48.87581" lon="2.3398">
        <ele>46.599998474121</ele>
        <time>2016-10-17T19:29:02.000Z</time>
      </trkpt>
      <trkpt lat="48.87537" lon="2.33965">
        <ele>46.200000762939</ele>
        <time>2016-10-17T19:29:15.000Z</time>
      </trkpt>
      <trkpt lat="48.87516" lon="2.33951">
        <ele>46</ele>
        <time>2016-10-17T19:29:20.000Z</time>
      </trkpt>
      <trkpt lat="48.87473" lon="2.33923">
        <ele>46.400001525879</ele>
        <time>2016-10-17T19:29:29.000Z</time>
      </trkpt>
      <trkpt lat="48.87439" lon="2.33904">
        <ele>46.799999237061</ele>
        <time>2016-10-17T19:29:36.000Z</time>
      </trkpt>
      <trkpt lat="48.87433" lon="2.339">
        <ele>47</ele>
        <time>2016-10-17T19:29:38.000Z</time>
      </trkpt>
      <trkpt lat="48.87431" lon="2.33889">
        <ele>47</ele>
        <time>2016-10-17T19:29:40.000Z</time>
      </trkpt>
      <trkpt lat="48.87429" lon="2.33856">
        <ele>46.599998474121</ele>
        <time>2016-10-17T19:29:45.000Z</time>
      </trkpt>
      <trkpt lat="48.87421" lon="2.33786">
        <ele>46.799999237061</ele>
        <time>2016-10-17T19:29:59.000Z</time>
      </trkpt>
      <trkpt lat="48.87408" lon="2.33718">
        <ele>48.400001525879</ele>
        <time>2016-10-17T19:30:15.000Z</time>
      </trkpt>
      <trkpt lat="48.87405" lon="2.33643">
        <ele>49.799999237061</ele>
        <time>2016-10-17T19:30:26.000Z</time>
      </trkpt>
      <trkpt lat="48.87404" lon="2.33575">
        <ele>51.400001525879</ele>
        <time>2016-10-17T19:30:33.000Z</time>
      </trkpt>
      <trkpt lat="48.87413" lon="2.33499">
        <ele>48</ele>
        <time>2016-10-17T19:30:42.000Z</time>
      </trkpt>
      <trkpt lat="48.87415" lon="2.33426">
        <ele>46.200000762939</ele>
        <time>2016-10-17T19:30:50.000Z</time>
      </trkpt>
      <trkpt lat="48.87419" lon="2.33352">
        <ele>45.200000762939</ele>
        <time>2016-10-17T19:30:57.000Z</time>
      </trkpt>
      <trkpt lat="48.87431" lon="2.33279">
        <ele>48.400001525879</ele>
        <time>2016-10-17T19:31:05.000Z</time>
      </trkpt>
      <trkpt lat="48.87429" lon="2.33272">
        <ele>48.799999237061</ele>
        <time>2016-10-17T19:31:06.000Z</time>
      </trkpt>
      <trkpt lat="48.87422" lon="2.33199">
        <ele>50.799999237061</ele>
        <time>2016-10-17T19:31:16.000Z</time>
      </trkpt>
      <trkpt lat="48.87419" lon="2.33133">
        <ele>50</ele>
        <time>2016-10-17T19:31:59.000Z</time>
      </trkpt>
      <trkpt lat="48.87424" lon="2.33059">
        <ele>46.799999237061</ele>
        <time>2016-10-17T19:32:12.000Z</time>
      </trkpt>
      <trkpt lat="48.87424" lon="2.32989">
        <ele>45.599998474121</ele>
        <time>2016-10-17T19:32:21.000Z</time>
      </trkpt>
      <trkpt lat="48.8742" lon="2.32957">
        <ele>48.400001525879</ele>
        <time>2016-10-17T19:32:25.000Z</time>
      </trkpt>
      <trkpt lat="48.8742" lon="2.32934">
        <ele>50.799999237061</ele>
        <time>2016-10-17T19:32:28.000Z</time>
      </trkpt>
      <trkpt lat="48.87421" lon="2.32864">
        <ele>51.200000762939</ele>
        <time>2016-10-17T19:32:38.000Z</time>
      </trkpt>
      <trkpt lat="48.8742" lon="2.32797">
        <ele>49.400001525879</ele>
        <time>2016-10-17T19:32:56.000Z</time>
      </trkpt>
      <trkpt lat="48.87424" lon="2.32729">
        <ele>48.799999237061</ele>
        <time>2016-10-17T19:33:08.000Z</time>
      </trkpt>
      <trkpt lat="48.87424" lon="2.32718">
        <ele>48.400001525879</ele>
        <time>2016-10-17T19:33:54.000Z</time>
      </trkpt>
      <trkpt lat="48.87418" lon="2.32649">
        <ele>46.799999237061</ele>
        <time>2016-10-17T19:34:10.000Z</time>
      </trkpt>
      <trkpt lat="48.87417" lon="2.32594">
        <ele>46.400001525879</ele>
        <time>2016-10-17T19:34:37.000Z</time>
      </trkpt>
      <trkpt lat="48.87406" lon="2.32553">
        <ele>46</ele>
        <time>2016-10-17T19:34:49.000Z</time>
      </trkpt>
      <trkpt lat="48.87412" lon="2.32513">
        <ele>44.200000762939</ele>
        <time>2016-10-17T19:34:55.000Z</time>
      </trkpt>
      <trkpt lat="48.87418" lon="2.3244">
        <ele>43.200000762939</ele>
        <time>2016-10-17T19:35:07.000Z</time>
      </trkpt>
      <trkpt lat="48.87428" lon="2.32372">
        <ele>43</ele>
        <time>2016-10-17T19:35:26.000Z</time>
      </trkpt>
      <trkpt lat="48.87438" lon="2.323">
        <ele>44</ele>
        <time>2016-10-17T19:35:38.000Z</time>
      </trkpt>
      <trkpt lat="48.87444" lon="2.32232">
        <ele>46.599998474121</ele>
        <time>2016-10-17T19:35:47.000Z</time>
      </trkpt>
      <trkpt lat="48.87455" lon="2.32163">
        <ele>48.599998474121</ele>
        <time>2016-10-17T19:35:56.000Z</time>
      </trkpt>
      <trkpt lat="48.87465" lon="2.32091">
        <ele>47.400001525879</ele>
        <time>2016-10-17T19:36:06.000Z</time>
      </trkpt>
      <trkpt lat="48.87478" lon="2.32026">
        <ele>45.599998474121</ele>
        <time>2016-10-17T19:36:20.000Z</time>
      </trkpt>
      <trkpt lat="48.8748" lon="2.32021">
        <ele>45.799999237061</ele>
        <time>2016-10-17T19:36:44.000Z</time>
      </trkpt>
      <trkpt lat="48.87486" lon="2.32014">
        <ele>45.799999237061</ele>
        <time>2016-10-17T19:37:07.000Z</time>
      </trkpt>
      <trkpt lat="48.87524" lon="2.31972">
        <ele>45.400001525879</ele>
        <time>2016-10-17T19:37:24.000Z</time>
      </trkpt>
      <trkpt lat="48.87549" lon="2.31966">
        <ele>44.599998474121</ele>
        <time>2016-10-17T19:37:33.000Z</time>
      </trkpt>
      <trkpt lat="48.87594" lon="2.31975">
        <ele>43.799999237061</ele>
        <time>2016-10-17T19:37:50.000Z</time>
      </trkpt>
      <trkpt lat="48.87638" lon="2.31947">
        <ele>44.599998474121</ele>
        <time>2016-10-17T19:38:07.000Z</time>
      </trkpt>
      <trkpt lat="48.87657" lon="2.31942">
        <ele>46</ele>
        <time>2016-10-17T19:38:17.000Z</time>
      </trkpt>
      <trkpt lat="48.87673" lon="2.31948">
        <ele>47</ele>
        <time>2016-10-17T19:38:29.000Z</time>
      </trkpt>
      <trkpt lat="48.87721" lon="2.31956">
        <ele>51</ele>
        <time>2016-10-17T19:38:49.000Z</time>
      </trkpt>
      <trkpt lat="48.87769" lon="2.31973">
        <ele>55</ele>
        <time>2016-10-17T19:39:12.000Z</time>
      </trkpt>
      <trkpt lat="48.87818" lon="2.31982">
        <ele>56.799999237061</ele>
        <time>2016-10-17T19:40:35.000Z</time>
      </trkpt>
      <trkpt lat="48.87825" lon="2.31972">
        <ele>57.200000762939</ele>
        <time>2016-10-17T19:41:45.000Z</time>
      </trkpt>
      <trkpt lat="48.87834" lon="2.31967">
        <ele>57.599998474121</ele>
        <time>2016-10-17T19:41:52.000Z</time>
      </trkpt>
      <trkpt lat="48.87868" lon="2.31919">
        <ele>59.799999237061</ele>
        <time>2016-10-17T19:42:11.000Z</time>
      </trkpt>
      <trkpt lat="48.87908" lon="2.31879">
        <ele>62.599998474121</ele>
        <time>2016-10-17T19:42:22.000Z</time>
      </trkpt>
      <trkpt lat="48.87939" lon="2.31827">
        <ele>63</ele>
        <time>2016-10-17T19:42:36.000Z</time>
      </trkpt>
      <trkpt lat="48.87977" lon="2.31789">
        <ele>62.799999237061</ele>
        <time>2016-10-17T19:42:51.000Z</time>
      </trkpt>
      <trkpt lat="48.87981" lon="2.31786">
        <ele>63</ele>
        <time>2016-10-17T19:42:52.000Z</time>
      </trkpt>
      <trkpt lat="48.88021" lon="2.31748">
        <ele>64</ele>
        <time>2016-10-17T19:43:08.000Z</time>
      </trkpt>
      <trkpt lat="48.88064" lon="2.31717">
        <ele>63.400001525879</ele>
        <time>2016-10-17T19:43:21.000Z</time>
      </trkpt>
      <trkpt lat="48.88102" lon="2.31679">
        <ele>64</ele>
        <time>2016-10-17T19:43:39.000Z</time>
      </trkpt>
      <trkpt lat="48.88114" lon="2.31669">
        <ele>63.799999237061</ele>
        <time>2016-10-17T19:44:00.000Z</time>
      </trkpt>
      <trkpt lat="48.88128" lon="2.31642">
        <ele>62.799999237061</ele>
        <time>2016-10-17T19:44:10.000Z</time>
      </trkpt>
      <trkpt lat="48.88139" lon="2.31651">
        <ele>62.599998474121</ele>
        <time>2016-10-17T19:44:18.000Z</time>
      </trkpt>
      <trkpt lat="48.88169" lon="2.31601">
        <ele>62.200000762939</ele>
        <time>2016-10-17T19:44:33.000Z</time>
      </trkpt>
      <trkpt lat="48.88202" lon="2.31579">
        <ele>62.400001525879</ele>
        <time>2016-10-17T19:44:42.000Z</time>
      </trkpt>
      <trkpt lat="48.88236" lon="2.31533">
        <ele>60.799999237061</ele>
        <time>2016-10-17T19:44:52.000Z</time>
      </trkpt>
      <trkpt lat="48.88276" lon="2.3149">
        <ele>60</ele>
        <time>2016-10-17T19:45:03.000Z</time>
      </trkpt>
      <trkpt lat="48.88313" lon="2.3145">
        <ele>59.599998474121</ele>
        <time>2016-10-17T19:45:15.000Z</time>
      </trkpt>
      <trkpt lat="48.88347" lon="2.31403">
        <ele>59.200000762939</ele>
        <time>2016-10-17T19:45:26.000Z</time>
      </trkpt>
      <trkpt lat="48.88373" lon="2.31369">
        <ele>59</ele>
        <time>2016-10-17T19:45:51.000Z</time>
      </trkpt>
      <trkpt lat="48.88406" lon="2.31322">
        <ele>59.200000762939</ele>
        <time>2016-10-17T19:46:06.000Z</time>
      </trkpt>
      <trkpt lat="48.88434" lon="2.31267">
        <ele>58.400001525879</ele>
        <time>2016-10-17T19:46:16.000Z</time>
      </trkpt>
      <trkpt lat="48.88464" lon="2.31206">
        <ele>57</ele>
        <time>2016-10-17T19:46:26.000Z</time>
      </trkpt>
      <trkpt lat="48.88497" lon="2.31151">
        <ele>56.400001525879</ele>
        <time>2016-10-17T19:46:35.000Z</time>
      </trkpt>
      <trkpt lat="48.88517" lon="2.31089">
        <ele>55.200000762939</ele>
        <time>2016-10-17T19:46:46.000Z</time>
      </trkpt>
      <trkpt lat="48.88516" lon="2.31085">
        <ele>55</ele>
        <time>2016-10-17T19:46:47.000Z</time>
      </trkpt>
      <trkpt lat="48.8851" lon="2.31071">
        <ele>54.799999237061</ele>
        <time>2016-10-17T19:46:50.000Z</time>
      </trkpt>
      <trkpt lat="48.8851" lon="2.31062">
        <ele>55</ele>
        <time>2016-10-17T19:46:52.000Z</time>
      </trkpt>
      <trkpt lat="48.88546" lon="2.31017">
        <ele>56</ele>
        <time>2016-10-17T19:47:05.000Z</time>
      </trkpt>
      <trkpt lat="48.88558" lon="2.31002">
        <ele>55.200000762939</ele>
        <time>2016-10-17T19:47:09.000Z</time>
      </trkpt>
      <trkpt lat="48.88594" lon="2.30953">
        <ele>56</ele>
        <time>2016-10-17T19:47:20.000Z</time>
      </trkpt>
      <trkpt lat="48.88601" lon="2.30945">
        <ele>56.400001525879</ele>
        <time>2016-10-17T19:47:22.000Z</time>
      </trkpt>
      <trkpt lat="48.88626" lon="2.30921">
        <ele>57.200000762939</ele>
        <time>2016-10-17T19:47:28.000Z</time>
      </trkpt>
      <trkpt lat="48.88663" lon="2.30871">
        <ele>55.599998474121</ele>
        <time>2016-10-17T19:47:38.000Z</time>
      </trkpt>
      <trkpt lat="48.88698" lon="2.3082">
        <ele>54.599998474121</ele>
        <time>2016-10-17T19:47:48.000Z</time>
      </trkpt>
      <trkpt lat="48.88734" lon="2.30771">
        <ele>51.599998474121</ele>
        <time>2016-10-17T19:47:58.000Z</time>
      </trkpt>
      <trkpt lat="48.88748" lon="2.30746">
        <ele>48.799999237061</ele>
        <time>2016-10-17T19:48:22.000Z</time>
      </trkpt>
      <trkpt lat="48.88777" lon="2.30692">
        <ele>46.200000762939</ele>
        <time>2016-10-17T19:48:36.000Z</time>
      </trkpt>
      <trkpt lat="48.88776" lon="2.3062">
        <ele>47</ele>
        <time>2016-10-17T19:48:48.000Z</time>
      </trkpt>
      <trkpt lat="48.88765" lon="2.30552">
        <ele>48.200000762939</ele>
        <time>2016-10-17T19:48:59.000Z</time>
      </trkpt>
      <trkpt lat="48.88754" lon="2.30487">
        <ele>48</ele>
        <time>2016-10-17T19:49:11.000Z</time>
      </trkpt>
      <trkpt lat="48.88749" lon="2.30418">
        <ele>48.799999237061</ele>
        <time>2016-10-17T19:49:26.000Z</time>
      </trkpt>
      <trkpt lat="48.88747" lon="2.30385">
        <ele>48.799999237061</ele>
        <time>2016-10-17T19:49:31.000Z</time>
      </trkpt>
      <trkpt lat="48.88739" lon="2.30338">
        <ele>50.799999237061</ele>
        <time>2016-10-17T19:49:37.000Z</time>
      </trkpt>
      <trkpt lat="48.88728" lon="2.30266">
        <ele>51.200000762939</ele>
        <time>2016-10-17T19:49:45.000Z</time>
      </trkpt>
      <trkpt lat="48.88709" lon="2.30202">
        <ele>49.200000762939</ele>
        <time>2016-10-17T19:49:51.000Z</time>
      </trkpt>
      <trkpt lat="48.88693" lon="2.30131">
        <ele>47.599998474121</ele>
        <time>2016-10-17T19:49:58.000Z</time>
      </trkpt>
      <trkpt lat="48.88674" lon="2.30067">
        <ele>47.799999237061</ele>
        <time>2016-10-17T19:50:06.000Z</time>
      </trkpt>
      <trkpt lat="48.88652" lon="2.30003">
        <ele>48</ele>
        <time>2016-10-17T19:50:15.000Z</time>
      </trkpt>
      <trkpt lat="48.88643" lon="2.29982">
        <ele>47.799999237061</ele>
        <time>2016-10-17T19:50:18.000Z</time>
      </trkpt>
      <trkpt lat="48.88615" lon="2.29917">
        <ele>47</ele>
        <time>2016-10-17T19:50:26.000Z</time>
      </trkpt>
      <trkpt lat="48.88586" lon="2.29856">
        <ele>44.599998474121</ele>
        <time>2016-10-17T19:50:33.000Z</time>
      </trkpt>
      <trkpt lat="48.88572" lon="2.29829">
        <ele>43.599998474121</ele>
        <time>2016-10-17T19:50:36.000Z</time>
      </trkpt>
      <trkpt lat="48.88544" lon="2.29773">
        <ele>41.200000762939</ele>
        <time>2016-10-17T19:50:46.000Z</time>
      </trkpt>
      <trkpt lat="48.88536" lon="2.29751">
        <ele>40.599998474121</ele>
        <time>2016-10-17T19:51:55.000Z</time>
      </trkpt>
      <trkpt lat="48.88534" lon="2.29747">
        <ele>40.599998474121</ele>
        <time>2016-10-17T19:51:56.000Z</time>
      </trkpt>
      <trkpt lat="48.88514" lon="2.29684">
        <ele>39.799999237061</ele>
        <time>2016-10-17T19:52:12.000Z</time>
      </trkpt>
      <trkpt lat="48.88473" lon="2.29648">
        <ele>42.599998474121</ele>
        <time>2016-10-17T19:52:29.000Z</time>
      </trkpt>
      <trkpt lat="48.88441" lon="2.29598">
        <ele>44.799999237061</ele>
        <time>2016-10-17T19:52:41.000Z</time>
      </trkpt>
      <trkpt lat="48.88407" lon="2.29546">
        <ele>44.200000762939</ele>
        <time>2016-10-17T19:52:51.000Z</time>
      </trkpt>
      <trkpt lat="48.88382" lon="2.29512">
        <ele>43.400001525879</ele>
        <time>2016-10-17T19:52:58.000Z</time>
      </trkpt>
      <trkpt lat="48.88355" lon="2.29452">
        <ele>44.200000762939</ele>
        <time>2016-10-17T19:53:09.000Z</time>
      </trkpt>
      <trkpt lat="48.88348" lon="2.29436">
        <ele>45</ele>
        <time>2016-10-17T19:53:12.000Z</time>
      </trkpt>
      <trkpt lat="48.8832" lon="2.2938">
        <ele>47.200000762939</ele>
        <time>2016-10-17T19:53:23.000Z</time>
      </trkpt>
      <trkpt lat="48.88286" lon="2.29327">
        <ele>49.200000762939</ele>
        <time>2016-10-17T19:53:36.000Z</time>
      </trkpt>
      <trkpt lat="48.88255" lon="2.29277">
        <ele>48.400001525879</ele>
        <time>2016-10-17T19:53:45.000Z</time>
      </trkpt>
      <trkpt lat="48.88223" lon="2.29225">
        <ele>47.400001525879</ele>
        <time>2016-10-17T19:53:53.000Z</time>
      </trkpt>
      <trkpt lat="48.88209" lon="2.29207">
        <ele>47.200000762939</ele>
        <time>2016-10-17T19:53:56.000Z</time>
      </trkpt>
      <trkpt lat="48.88181" lon="2.29153">
        <ele>47</ele>
        <time>2016-10-17T19:54:03.000Z</time>
      </trkpt>
      <trkpt lat="48.88167" lon="2.29124">
        <ele>46.599998474121</ele>
        <time>2016-10-17T19:54:07.000Z</time>
      </trkpt>
      <trkpt lat="48.88136" lon="2.29072">
        <ele>46.400001525879</ele>
        <time>2016-10-17T19:54:15.000Z</time>
      </trkpt>
      <trkpt lat="48.881" lon="2.29023">
        <ele>47.400001525879</ele>
        <time>2016-10-17T19:54:24.000Z</time>
      </trkpt>
      <trkpt lat="48.88078" lon="2.2896">
        <ele>46.799999237061</ele>
        <time>2016-10-17T19:54:32.000Z</time>
      </trkpt>
      <trkpt lat="48.88047" lon="2.28902">
        <ele>46.400001525879</ele>
        <time>2016-10-17T19:54:41.000Z</time>
      </trkpt>
      <trkpt lat="48.88021" lon="2.28836">
        <ele>47</ele>
        <time>2016-10-17T19:54:50.000Z</time>
      </trkpt>
      <trkpt lat="48.87999" lon="2.28783">
        <ele>48.200000762939</ele>
        <time>2016-10-17T19:54:58.000Z</time>
      </trkpt>
      <trkpt lat="48.87969" lon="2.28732">
        <ele>49</ele>
        <time>2016-10-17T19:55:07.000Z</time>
      </trkpt>
      <trkpt lat="48.87958" lon="2.28711">
        <ele>48.799999237061</ele>
        <time>2016-10-17T19:55:10.000Z</time>
      </trkpt>
      <trkpt lat="48.87926" lon="2.28659">
        <ele>48.599998474121</ele>
        <time>2016-10-17T19:55:18.000Z</time>
      </trkpt>
      <trkpt lat="48.87891" lon="2.28607">
        <ele>49.599998474121</ele>
        <time>2016-10-17T19:55:27.000Z</time>
      </trkpt>
      <trkpt lat="48.87858" lon="2.2857">
        <ele>50.400001525879</ele>
        <time>2016-10-17T19:55:34.000Z</time>
      </trkpt>
      <trkpt lat="48.87843" lon="2.28555">
        <ele>50</ele>
        <time>2016-10-17T19:55:37.000Z</time>
      </trkpt>
      <trkpt lat="48.87828" lon="2.28536">
        <ele>49.400001525879</ele>
        <time>2016-10-17T19:55:40.000Z</time>
      </trkpt>
      <trkpt lat="48.87792" lon="2.28491">
        <ele>48</ele>
        <time>2016-10-17T19:55:48.000Z</time>
      </trkpt>
      <trkpt lat="48.8778" lon="2.2842">
        <ele>45</ele>
        <time>2016-10-17T19:59:04.000Z</time>
      </trkpt>
      <trkpt lat="48.87738" lon="2.28437">
        <ele>47.799999237061</ele>
        <time>2016-10-17T19:59:33.000Z</time>
      </trkpt>
      <trkpt lat="48.87715" lon="2.28497">
        <ele>50.400001525879</ele>
        <time>2016-10-17T19:59:54.000Z</time>
      </trkpt>
      <trkpt lat="48.87713" lon="2.285">
        <ele>50.599998474121</ele>
        <time>2016-10-17T19:59:56.000Z</time>
      </trkpt>
      <trkpt lat="48.8771" lon="2.28568">
        <ele>51.599998474121</ele>
        <time>2016-10-17T20:00:11.000Z</time>
      </trkpt>
      <trkpt lat="48.8769" lon="2.28632">
        <ele>52.599998474121</ele>
        <time>2016-10-17T20:00:25.000Z</time>
      </trkpt>
      <trkpt lat="48.87666" lon="2.28693">
        <ele>54.599998474121</ele>
        <time>2016-10-17T20:00:40.000Z</time>
      </trkpt>
      <trkpt lat="48.8765" lon="2.28759">
        <ele>56</ele>
        <time>2016-10-17T20:00:53.000Z</time>
      </trkpt>
      <trkpt lat="48.87637" lon="2.28826">
        <ele>58.200000762939</ele>
        <time>2016-10-17T20:01:03.000Z</time>
      </trkpt>
      <trkpt lat="48.87604" lon="2.28878">
        <ele>59.200000762939</ele>
        <time>2016-10-17T20:01:14.000Z</time>
      </trkpt>
      <trkpt lat="48.87577" lon="2.28937">
        <ele>61</ele>
        <time>2016-10-17T20:01:26.000Z</time>
      </trkpt>
      <trkpt lat="48.87562" lon="2.29006">
        <ele>64.400001525879</ele>
        <time>2016-10-17T20:01:39.000Z</time>
      </trkpt>
      <trkpt lat="48.87548" lon="2.29074">
        <ele>65.199996948242</ele>
        <time>2016-10-17T20:01:54.000Z</time>
      </trkpt>
      <trkpt lat="48.87534" lon="2.29143">
        <ele>66.400001525879</ele>
        <time>2016-10-17T20:02:10.000Z</time>
      </trkpt>
      <trkpt lat="48.8752" lon="2.2921">
        <ele>67.800003051758</ele>
        <time>2016-10-17T20:02:22.000Z</time>
      </trkpt>
      <trkpt lat="48.87509" lon="2.29243">
        <ele>68.199996948242</ele>
        <time>2016-10-17T20:02:28.000Z</time>
      </trkpt>
      <trkpt lat="48.87484" lon="2.29302">
        <ele>66</ele>
        <time>2016-10-17T20:02:42.000Z</time>
      </trkpt>
      <trkpt lat="48.87478" lon="2.29308">
        <ele>65.199996948242</ele>
        <time>2016-10-17T20:03:57.000Z</time>
      </trkpt>
      <trkpt lat="48.87446" lon="2.29361">
        <ele>60.400001525879</ele>
        <time>2016-10-17T20:04:12.000Z</time>
      </trkpt>
      <trkpt lat="48.8743" lon="2.29395">
        <ele>59.200000762939</ele>
        <time>2016-10-17T20:04:48.000Z</time>
      </trkpt>
      <trkpt lat="48.87359" lon="2.29638">
        <ele>62.200000762939</ele>
        <time>2016-10-17T20:05:37.000Z</time>
      </trkpt>
      <trkpt lat="48.87353" lon="2.29645">
        <ele>62.599998474121</ele>
        <time>2016-10-17T20:05:48.000Z</time>
      </trkpt>
      <trkpt lat="48.87346" lon="2.29656">
        <ele>62.799999237061</ele>
        <time>2016-10-17T20:07:20.000Z</time>
      </trkpt>
      <trkpt lat="48.8732" lon="2.29643">
        <ele>62.799999237061</ele>
        <time>2016-10-17T20:07:38.000Z</time>
      </trkpt>
      <trkpt lat="48.87307" lon="2.29646">
        <ele>63.400001525879</ele>
        <time>2016-10-17T20:09:05.000Z</time>
      </trkpt>
      <trkpt lat="48.87293" lon="2.29702">
        <ele>65.599998474121</ele>
        <time>2016-10-17T20:09:29.000Z</time>
      </trkpt>
      <trkpt lat="48.87273" lon="2.29769">
        <ele>69.199996948242</ele>
        <time>2016-10-17T20:09:43.000Z</time>
      </trkpt>
      <trkpt lat="48.87272" lon="2.29775">
        <ele>69</ele>
        <time>2016-10-17T20:09:44.000Z</time>
      </trkpt>
      <trkpt lat="48.87255" lon="2.29839">
        <ele>67.199996948242</ele>
        <time>2016-10-17T20:09:55.000Z</time>
      </trkpt>
      <trkpt lat="48.87232" lon="2.299">
        <ele>64.800003051758</ele>
        <time>2016-10-17T20:10:04.000Z</time>
      </trkpt>
      <trkpt lat="48.87231" lon="2.29906">
        <ele>64.400001525879</ele>
        <time>2016-10-17T20:10:05.000Z</time>
      </trkpt>
      <trkpt lat="48.87214" lon="2.29972">
        <ele>62.400001525879</ele>
        <time>2016-10-17T20:10:19.000Z</time>
      </trkpt>
      <trkpt lat="48.87189" lon="2.30037">
        <ele>59</ele>
        <time>2016-10-17T20:10:29.000Z</time>
      </trkpt>
      <trkpt lat="48.87146" lon="2.30215">
        <ele>53.599998474121</ele>
        <time>2016-10-17T20:10:47.000Z</time>
      </trkpt>
      <trkpt lat="48.87119" lon="2.30269">
        <ele>53.799999237061</ele>
        <time>2016-10-17T20:11:02.000Z</time>
      </trkpt>
      <trkpt lat="48.87099" lon="2.30332">
        <ele>55</ele>
        <time>2016-10-17T20:11:19.000Z</time>
      </trkpt>
      <trkpt lat="48.8708" lon="2.30393">
        <ele>55</ele>
        <time>2016-10-17T20:11:32.000Z</time>
      </trkpt>
      <trkpt lat="48.87074" lon="2.30412">
        <ele>55.400001525879</ele>
        <time>2016-10-17T20:11:35.000Z</time>
      </trkpt>
      <trkpt lat="48.87053" lon="2.30479">
        <ele>52.400001525879</ele>
        <time>2016-10-17T20:11:45.000Z</time>
      </trkpt>
      <trkpt lat="48.87031" lon="2.30543">
        <ele>49.200000762939</ele>
        <time>2016-10-17T20:11:58.000Z</time>
      </trkpt>
      <trkpt lat="48.87028" lon="2.30554">
        <ele>48.400001525879</ele>
        <time>2016-10-17T20:12:00.000Z</time>
      </trkpt>
      <trkpt lat="48.87016" lon="2.3059">
        <ele>47.799999237061</ele>
        <time>2016-10-17T20:12:06.000Z</time>
      </trkpt>
      <trkpt lat="48.86998" lon="2.30655">
        <ele>50.799999237061</ele>
        <time>2016-10-17T20:12:18.000Z</time>
      </trkpt>
      <trkpt lat="48.86966" lon="2.30713">
        <ele>48</ele>
        <time>2016-10-17T20:12:32.000Z</time>
      </trkpt>
      <trkpt lat="48.86957" lon="2.30737">
        <ele>45.400001525879</ele>
        <time>2016-10-17T20:12:35.000Z</time>
      </trkpt>
      <trkpt lat="48.86935" lon="2.30803">
        <ele>43</ele>
        <time>2016-10-17T20:12:43.000Z</time>
      </trkpt>
      <trkpt lat="48.86917" lon="2.3086">
        <ele>43.200000762939</ele>
        <time>2016-10-17T20:17:23.000Z</time>
      </trkpt>
      <trkpt lat="48.86915" lon="2.30862">
        <ele>43.200000762939</ele>
        <time>2016-10-17T20:17:48.000Z</time>
      </trkpt>
      <trkpt lat="48.86915" lon="2.30873">
        <ele>43.200000762939</ele>
        <time>2016-10-17T20:17:52.000Z</time>
      </trkpt>
      <trkpt lat="48.86918" lon="2.30896">
        <ele>43.200000762939</ele>
        <time>2016-10-17T20:18:40.000Z</time>
      </trkpt>
      <trkpt lat="48.86928" lon="2.30904">
        <ele>43</ele>
        <time>2016-10-17T20:18:47.000Z</time>
      </trkpt>
      <trkpt lat="48.86959" lon="2.30955">
        <ele>44.200000762939</ele>
        <time>2016-10-17T20:19:10.000Z</time>
      </trkpt>
      <trkpt lat="48.86966" lon="2.31011">
        <ele>45.200000762939</ele>
        <time>2016-10-17T20:19:29.000Z</time>
      </trkpt>
      <trkpt lat="48.86944" lon="2.31072">
        <ele>44.200000762939</ele>
        <time>2016-10-17T20:19:48.000Z</time>
      </trkpt>
      <trkpt lat="48.86943" lon="2.31094">
        <ele>43.599998474121</ele>
        <time>2016-10-17T20:20:16.000Z</time>
      </trkpt>
      <trkpt lat="48.8697" lon="2.3115">
        <ele>42.400001525879</ele>
        <time>2016-10-17T20:20:30.000Z</time>
      </trkpt>
      <trkpt lat="48.86992" lon="2.31186">
        <ele>42.799999237061</ele>
        <time>2016-10-17T20:20:37.000Z</time>
      </trkpt>
      <trkpt lat="48.87022" lon="2.31237">
        <ele>44.200000762939</ele>
        <time>2016-10-17T20:20:46.000Z</time>
      </trkpt>
      <trkpt lat="48.87053" lon="2.31293">
        <ele>43.200000762939</ele>
        <time>2016-10-17T20:20:55.000Z</time>
      </trkpt>
      <trkpt lat="48.87089" lon="2.3134">
        <ele>42.599998474121</ele>
        <time>2016-10-17T20:21:03.000Z</time>
      </trkpt>
      <trkpt lat="48.87129" lon="2.31376">
        <ele>42.599998474121</ele>
        <time>2016-10-17T20:21:11.000Z</time>
      </trkpt>
      <trkpt lat="48.87164" lon="2.31415">
        <ele>42.599998474121</ele>
        <time>2016-10-17T20:21:19.000Z</time>
      </trkpt>
      <trkpt lat="48.8721" lon="2.31441">
        <ele>42.799999237061</ele>
        <time>2016-10-17T20:21:34.000Z</time>
      </trkpt>
      <trkpt lat="48.87227" lon="2.31451">
        <ele>42.799999237061</ele>
        <time>2016-10-17T20:21:38.000Z</time>
      </trkpt>
      <trkpt lat="48.87265" lon="2.31488">
        <ele>43.799999237061</ele>
        <time>2016-10-17T20:21:48.000Z</time>
      </trkpt>
      <trkpt lat="48.87288" lon="2.3155">
        <ele>45</ele>
        <time>2016-10-17T20:22:02.000Z</time>
      </trkpt>
      <trkpt lat="48.87308" lon="2.31614">
        <ele>44.200000762939</ele>
        <time>2016-10-17T20:22:20.000Z</time>
      </trkpt>
      <trkpt lat="48.87317" lon="2.31652">
        <ele>43.200000762939</ele>
        <time>2016-10-17T20:22:26.000Z</time>
      </trkpt>
      <trkpt lat="48.87328" lon="2.31725">
        <ele>42.400001525879</ele>
        <time>2016-10-17T20:22:35.000Z</time>
      </trkpt>
      <trkpt lat="48.87332" lon="2.31736">
        <ele>42.400001525879</ele>
        <time>2016-10-17T20:22:37.000Z</time>
      </trkpt>
      <trkpt lat="48.87345" lon="2.31803">
        <ele>43.599998474121</ele>
        <time>2016-10-17T20:22:48.000Z</time>
      </trkpt>
      <trkpt lat="48.87355" lon="2.31869">
        <ele>45</ele>
        <time>2016-10-17T20:22:59.000Z</time>
      </trkpt>
      <trkpt lat="48.87358" lon="2.31885">
        <ele>45.400001525879</ele>
        <time>2016-10-17T20:23:01.000Z</time>
      </trkpt>
      <trkpt lat="48.87354" lon="2.31958">
        <ele>44.799999237061</ele>
        <time>2016-10-17T20:23:10.000Z</time>
      </trkpt>
      <trkpt lat="48.87357" lon="2.32028">
        <ele>44.400001525879</ele>
        <time>2016-10-17T20:23:22.000Z</time>
      </trkpt>
      <trkpt lat="48.8735" lon="2.32099">
        <ele>45.200000762939</ele>
        <time>2016-10-17T20:23:35.000Z</time>
      </trkpt>
      <trkpt lat="48.87348" lon="2.32172">
        <ele>45.799999237061</ele>
        <time>2016-10-17T20:23:48.000Z</time>
      </trkpt>
      <trkpt lat="48.87348" lon="2.32243">
        <ele>43.400001525879</ele>
        <time>2016-10-17T20:23:57.000Z</time>
      </trkpt>
      <trkpt lat="48.87353" lon="2.32316">
        <ele>43.200000762939</ele>
        <time>2016-10-17T20:24:05.000Z</time>
      </trkpt>
      <trkpt lat="48.87355" lon="2.32348">
        <ele>43.599998474121</ele>
        <time>2016-10-17T20:24:10.000Z</time>
      </trkpt>
      <trkpt lat="48.87345" lon="2.32417">
        <ele>45.400001525879</ele>
        <time>2016-10-17T20:24:20.000Z</time>
      </trkpt>
      <trkpt lat="48.87335" lon="2.3249">
        <ele>47.400001525879</ele>
        <time>2016-10-17T20:24:30.000Z</time>
      </trkpt>
      <trkpt lat="48.87327" lon="2.32556">
        <ele>49.599998474121</ele>
        <time>2016-10-17T20:24:39.000Z</time>
      </trkpt>
      <trkpt lat="48.87325" lon="2.32625">
        <ele>48.200000762939</ele>
        <time>2016-10-17T20:24:48.000Z</time>
      </trkpt>
      <trkpt lat="48.87326" lon="2.32696">
        <ele>48.400001525879</ele>
        <time>2016-10-17T20:25:08.000Z</time>
      </trkpt>
      <trkpt lat="48.8732" lon="2.32747">
        <ele>49.799999237061</ele>
        <time>2016-10-17T20:25:16.000Z</time>
      </trkpt>
      <trkpt lat="48.87319" lon="2.32763">
        <ele>49.799999237061</ele>
        <time>2016-10-17T20:25:18.000Z</time>
      </trkpt>
      <trkpt lat="48.87318" lon="2.32807">
        <ele>49.400001525879</ele>
        <time>2016-10-17T20:25:23.000Z</time>
      </trkpt>
      <trkpt lat="48.87307" lon="2.32823">
        <ele>49.400001525879</ele>
        <time>2016-10-17T20:25:25.000Z</time>
      </trkpt>
      <trkpt lat="48.87269" lon="2.32866">
        <ele>50</ele>
        <time>2016-10-17T20:25:33.000Z</time>
      </trkpt>
      <trkpt lat="48.87236" lon="2.32918">
        <ele>50.400001525879</ele>
        <time>2016-10-17T20:25:44.000Z</time>
      </trkpt>
      <trkpt lat="48.87226" lon="2.32959">
        <ele>49.200000762939</ele>
        <time>2016-10-17T20:26:18.000Z</time>
      </trkpt>
      <trkpt lat="48.87192" lon="2.33012">
        <ele>50.400001525879</ele>
        <time>2016-10-17T20:26:32.000Z</time>
      </trkpt>
      <trkpt lat="48.87182" lon="2.33034">
        <ele>50.200000762939</ele>
        <time>2016-10-17T20:26:36.000Z</time>
      </trkpt>
      <trkpt lat="48.87148" lon="2.33089">
        <ele>50.599998474121</ele>
        <time>2016-10-17T20:26:44.000Z</time>
      </trkpt>
      <trkpt lat="48.87119" lon="2.33144">
        <ele>50.400001525879</ele>
        <time>2016-10-17T20:26:51.000Z</time>
      </trkpt>
      <trkpt lat="48.87105" lon="2.33174">
        <ele>48.799999237061</ele>
        <time>2016-10-17T20:26:55.000Z</time>
      </trkpt>
      <trkpt lat="48.87098" lon="2.33184">
        <ele>48.599998474121</ele>
        <time>2016-10-17T20:26:57.000Z</time>
      </trkpt>
      <trkpt lat="48.87054" lon="2.33211">
        <ele>48</ele>
        <time>2016-10-17T20:27:12.000Z</time>
      </trkpt>
      <trkpt lat="48.87015" lon="2.33246">
        <ele>48.400001525879</ele>
        <time>2016-10-17T20:27:27.000Z</time>
      </trkpt>
      <trkpt lat="48.86976" lon="2.33263">
        <ele>50.200000762939</ele>
        <time>2016-10-17T20:27:35.000Z</time>
      </trkpt>
      <trkpt lat="48.86957" lon="2.3327">
        <ele>51</ele>
        <time>2016-10-17T20:27:38.000Z</time>
      </trkpt>
      <trkpt lat="48.86943" lon="2.33273">
        <ele>51.200000762939</ele>
        <time>2016-10-17T20:27:40.000Z</time>
      </trkpt>
      <trkpt lat="48.86898" lon="2.33287">
        <ele>50</ele>
        <time>2016-10-17T20:27:46.000Z</time>
      </trkpt>
      <trkpt lat="48.8685" lon="2.33306">
        <ele>49.799999237061</ele>
        <time>2016-10-17T20:27:52.000Z</time>
      </trkpt>
      <trkpt lat="48.86805" lon="2.33328">
        <ele>49.400001525879</ele>
        <time>2016-10-17T20:27:58.000Z</time>
      </trkpt>
      <trkpt lat="48.86758" lon="2.33345">
        <ele>49.400001525879</ele>
        <time>2016-10-17T20:28:05.000Z</time>
      </trkpt>
      <trkpt lat="48.86711" lon="2.33369">
        <ele>49.599998474121</ele>
        <time>2016-10-17T20:28:12.000Z</time>
      </trkpt>
      <trkpt lat="48.86666" lon="2.33387">
        <ele>48.200000762939</ele>
        <time>2016-10-17T20:28:18.000Z</time>
      </trkpt>
      <trkpt lat="48.86621" lon="2.33409">
        <ele>48</ele>
        <time>2016-10-17T20:28:24.000Z</time>
      </trkpt>
      <trkpt lat="48.86614" lon="2.33412">
        <ele>48</ele>
        <time>2016-10-17T20:28:25.000Z</time>
      </trkpt>
      <trkpt lat="48.86592" lon="2.33422">
        <ele>48.400001525879</ele>
        <time>2016-10-17T20:28:28.000Z</time>
      </trkpt>
      <trkpt lat="48.86547" lon="2.33441">
        <ele>49.400001525879</ele>
        <time>2016-10-17T20:28:34.000Z</time>
      </trkpt>
      <trkpt lat="48.86504" lon="2.3346">
        <ele>49.799999237061</ele>
        <time>2016-10-17T20:28:40.000Z</time>
      </trkpt>
      <trkpt lat="48.86455" lon="2.3348">
        <ele>50</ele>
        <time>2016-10-17T20:28:47.000Z</time>
      </trkpt>
      <trkpt lat="48.86408" lon="2.33505">
        <ele>49</ele>
        <time>2016-10-17T20:28:55.000Z</time>
      </trkpt>
      <trkpt lat="48.86365" lon="2.33521">
        <ele>47.799999237061</ele>
        <time>2016-10-17T20:29:06.000Z</time>
      </trkpt>
      <trkpt lat="48.86347" lon="2.33534">
        <ele>47.200000762939</ele>
        <time>2016-10-17T20:30:22.000Z</time>
      </trkpt>
      <trkpt lat="48.86311" lon="2.3357">
        <ele>47</ele>
        <time>2016-10-17T20:30:38.000Z</time>
      </trkpt>
      <trkpt lat="48.86288" lon="2.33633">
        <ele>46.799999237061</ele>
        <time>2016-10-17T20:30:50.000Z</time>
      </trkpt>
      <trkpt lat="48.86281" lon="2.33666">
        <ele>46.599998474121</ele>
        <time>2016-10-17T20:30:55.000Z</time>
      </trkpt>
      <trkpt lat="48.86267" lon="2.33734">
        <ele>46.400001525879</ele>
        <time>2016-10-17T20:31:03.000Z</time>
      </trkpt>
      <trkpt lat="48.86246" lon="2.33804">
        <ele>45.599998474121</ele>
        <time>2016-10-17T20:31:10.000Z</time>
      </trkpt>
      <trkpt lat="48.86226" lon="2.33876">
        <ele>45.400001525879</ele>
        <time>2016-10-17T20:31:17.000Z</time>
      </trkpt>
      <trkpt lat="48.8621" lon="2.33941">
        <ele>46.599998474121</ele>
        <time>2016-10-17T20:31:24.000Z</time>
      </trkpt>
      <trkpt lat="48.86194" lon="2.34007">
        <ele>49.200000762939</ele>
        <time>2016-10-17T20:31:31.000Z</time>
      </trkpt>
      <trkpt lat="48.86175" lon="2.3407">
        <ele>48.599998474121</ele>
        <time>2016-10-17T20:31:38.000Z</time>
      </trkpt>
      <trkpt lat="48.86169" lon="2.34102">
        <ele>48.599998474121</ele>
        <time>2016-10-17T20:32:12.000Z</time>
      </trkpt>
      <trkpt lat="48.86151" lon="2.34133">
        <ele>48.400001525879</ele>
        <time>2016-10-17T20:32:20.000Z</time>
      </trkpt>
      <trkpt lat="48.86135" lon="2.34205">
        <ele>48.799999237061</ele>
        <time>2016-10-17T20:32:29.000Z</time>
      </trkpt>
      <trkpt lat="48.86133" lon="2.34278">
        <ele>49</ele>
        <time>2016-10-17T20:32:37.000Z</time>
      </trkpt>
      <trkpt lat="48.86119" lon="2.34349">
        <ele>50</ele>
        <time>2016-10-17T20:32:46.000Z</time>
      </trkpt>
      <trkpt lat="48.86112" lon="2.34405">
        <ele>49.799999237061</ele>
        <time>2016-10-17T20:32:53.000Z</time>
      </trkpt>
      <trkpt lat="48.8611" lon="2.34412">
        <ele>49.799999237061</ele>
        <time>2016-10-17T20:32:54.000Z</time>
      </trkpt>
      <trkpt lat="48.86109" lon="2.34429">
        <ele>49.599998474121</ele>
        <time>2016-10-17T20:32:56.000Z</time>
      </trkpt>
      <trkpt lat="48.86104" lon="2.34483">
        <ele>51</ele>
        <time>2016-10-17T20:33:02.000Z</time>
      </trkpt>
      <trkpt lat="48.86079" lon="2.34549">
        <ele>51</ele>
        <time>2016-10-17T20:33:10.000Z</time>
      </trkpt>
      <trkpt lat="48.86047" lon="2.34604">
        <ele>47.400001525879</ele>
        <time>2016-10-17T20:33:19.000Z</time>
      </trkpt>
      <trkpt lat="48.86017" lon="2.34629">
        <ele>47.400001525879</ele>
        <time>2016-10-17T20:33:26.000Z</time>
      </trkpt>
      <trkpt lat="48.85989" lon="2.34654">
        <ele>46.799999237061</ele>
        <time>2016-10-17T20:33:33.000Z</time>
      </trkpt>
      <trkpt lat="48.85961" lon="2.34697">
        <ele>46</ele>
        <time>2016-10-17T20:33:47.000Z</time>
      </trkpt>
      <trkpt lat="48.85956" lon="2.34716">
        <ele>45.400001525879</ele>
        <time>2016-10-17T20:33:56.000Z</time>
      </trkpt>
    </trkseg>
  </trk>
</gpx>